Oakdale, CT (06370)

8:13 AM EDT on September 02, 2015 (GMT -0400)
Montville High School | | Change Station
CLOSE
Current Station
Personal Weather Station
Location: Montville, CT
Elevation: 381 ft
Nearby Weather Stations
Active Advisory: Special Statement Active Notice: Record Report

Elev 381 ft 41.46 °N, 72.16 °W | Updated 2 minutes ago

Mostly Cloudy
Mostly Cloudy
68.8 °F
Feels Like 68.8 °F
N
6.0
Wind Variable Wind from WSW
Gusts 8.0 mph

Today
High -- | Low -- °F
--% Chance of Precip.
Yesterday
High -- | Low -- °F
Precip. -- in
6:15 AM 7:20 PM
Waning Gibbous, 81% visible
Pressure 30.03 in
Visibility 4.0 miles
Clouds Scattered Clouds 500 ft
Dew Point 68 °F
Humidity 98%
Rainfall 0.00 in
Snow Depth Not available.
UV 1 out of 12
Pollen 9.40 out of 12
Air Quality Not available.
Flu Activity Not available.
SPECI KGON 021203Z 24004KT 4SM BR SCT005 23/22 A3003 RMK AO2 T02280222
Pressure 30.03 in
Visibility 4.0 miles
Clouds Scattered Clouds 500 ft
Dew Point 68 °F
Humidity 98%
Rainfall 0.00 in
Snow Depth Not available.
UV 1 out of 12
Pollen 9.40 out of 12
Air Quality Not available.
Flu Activity Not available.
SPECI KGON 021203Z 24004KT 4SM BR SCT005 23/22 A3003 RMK AO2 T02280222

10-Day Weather Forecast

×

Almanac

Astronomy

Sep. 02, 2015 Rise Set
Actual Time
Civil Twilight
Nautical Twilight
Astronomical Twilight
Moon
Length of Visible Light
Length of Day
Tomorrow will be .
, % of the Moon is Illuminated

Today's Extremes

State Highs State Lows

Community

WunderPhotos

Upload Photos

1,851,738 photos uploaded!

WunderBlogs® & News

Nearby

Air Quality

  Air Quality AQ Index Pollutant
Not available.

Snow Depth

Station Depth Elevation

Earthquake Activity

City Distance Mag. Time & Date
Minimum magnitude displayed is 2.5.

Coastal Water Temperatures

Place Temperature

Stations

Nearby Weather Stations

Station Location Temp. Windchill Dew Point Humidity Wind Precip. Elev Updated Type
                   
Special Statement
Statement as of 7:55 AM EDT on September 02, 2015

... Patchy dense fog until 9 am...

Clear skies and calm winds will cause areas of fog until around 9 am.

A few patches of dense fog may briefly restrict visibility to 1/4
mile or less.

Motorists should exercise extra caution while driving through
early morning fog.


Maloit

755 am EDT Wed Sep 2 2015

... Patchy dense fog until 9 am...

Clear skies and calm winds will cause areas of fog until around 9 am.

A few patches of dense fog may briefly restrict visibility to 1/4
mile or less.

Motorists should exercise extra caution while driving through
early morning fog.


Maloit